Atikokan, Ontario

2:57 AM CDT on July 31, 2015 (GMT -0500)
Crane Lake | | Change Station
CLOSE
Current Station
Airport
Location: Crane Lake,
Elevation: 1119 ft
Nearby Weather Stations
Active Advisory: Special Weather Statement

Elev 1119 ft 48.27 °N, 92.48 °W | Updated 16 minutes ago

Scattered Clouds
Scattered Clouds
52 °F
Feels Like 52 °F
N
0
Wind Variable Wind from East

Today is forecast to be nearly the same temperature as yesterday.

Today
High -- | Low -- °F
--% Chance of Precip.
Yesterday
High -- | Low -- °F
Precip. -- in
5:38 AM 8:46 PM
Full, 100% visible
Pressure 29.91 in
Visibility 10.0 miles
Clouds Scattered Clouds 9000 ft
Dew Point 50 °F
Humidity 94%
Rainfall 0.00 in
Snow Depth Not available.
UV 0 out of 12
Pollen Not available.
Air Quality Not available.
Flu Activity Not available.
METAR KCDD 310741Z AUTO 09000KT 10SM SCT090 11/10 A2991 RMK AO2

More Conditions Fewer Conditions

Pressure 29.91 in
Visibility 10.0 miles
Clouds Scattered Clouds 9000 ft
Dew Point 50 °F
Humidity 94%
Rainfall 0.00 in
Snow Depth Not available.
UV 0 out of 12
Pollen Not available.
Air Quality Not available.
Flu Activity Not available.
METAR KCDD 310741Z AUTO 09000KT 10SM SCT090 11/10 A2991 RMK AO2

More Conditions Fewer Conditions

10-Day Weather Forecast

×

Almanac

Astronomy

Jul. 31, 2015 Rise Set
Actual Time
Civil Twilight
Nautical Twilight
Astronomical Twilight
Moon
Length of Visible Light
Length of Day
Tomorrow will be .
, % of the Moon is Illuminated

Today's Extremes

Country Highs Country Lows

Community

WunderPhotos

Upload Photos

1,842,634 photos uploaded!

WunderBlogs® & News

Nearby

Air Quality

  Air Quality AQ Index Pollutant
Not available.

Snow Depth

Station Depth Elevation

Earthquake Activity

City Distance Mag. Time & Date
Minimum magnitude displayed is 2.5.

Coastal Water Temperatures

Place Temperature

Stations

Nearby Weather Stations

Station Location Temp. Windchill Dew Point Humidity Wind Precip. Elev Updated Type
                   
Special Weather Statement
Severe Thunderstorm Watch
for northern Ontario
ended by Environment Canada
at 8:54 p.M. EDT Thursday 30 July 2015.
---------------------------------------------------------------------
Severe Thunderstorm Watch ended for:
      Kenora - Nestor Falls
      Dryden - Ignace
      Fort Frances - Rainy Lake
      Atikokan - Upsala - Quetico
      Red Lake - Ear Falls
      Sioux Lookout - Savant Lake.

---------------------------------------------------------------------
==Discussion==

Conditions are no longer favourable for the development of severe 
thunderstorms.

Http://weather.Gc.CA/warnings/index(underscore)e.Html?Prov=non

End/MSC